Latest Coastal Weather Observations for Horn Island

IDQ60701

Issued at 12:51 pm EST Friday 3 July 2015 (issued every 10 minutes, with the page automatically refreshed every 10 minutes)

About coastal observations | Map of coastal stations | Coastal observations for QLD | Marine services | Other Formats
Station Details ID: 027058 Name: HORN ISLAND Lat: -10.58 Lon: 142.29 Height: 4.0 m
Data from the previous 72 hours. | See also: Recent months at Horn Island
Date/Time
EST
Temp

°C
Wind Pressure Rain
since 9am
mm
Weather Cloud Vis
km
Sea
Height
m
Swell
Dir
 
Speed
knots
Gust
knots
hPa Trend Height
m
Period
s
Dir
03/12:30pm 27.6 E 15 21 1013.9 - 0.0 - - 10 - - - -
03/12:00pm 27.6 ESE 16 21 1014.3 - 0.0 - Partly cloudy 10 - - - -
03/11:30am 27.1 ESE 15 21 1014.8 - 0.0 - Partly cloudy 10 - - - -
03/11:00am 27.6 E 15 20 1015.0 - 0.0 - Partly cloudy 10 - - - -
03/10:30am 27.2 ESE 13 20 1015.3 - 0.0 - - 10 - - - -
03/10:00am 26.8 ESE 15 19 1015.6 - 0.0 - Partly cloudy 10 - - - -
03/09:30am 26.3 ESE 11 15 1015.8 - 0.0 - Partly cloudy 10 - - - -
03/09:00am 25.9 ESE 12 18 1015.8 - 0.2 - - 10 - - - -
03/08:30am 25.3 SE 9 14 1015.5 - 0.2 - - 10 - - - -
03/08:00am 24.6 SE 9 11 1015.2 - 0.2 - - 10 - - - -
03/07:30am 23.8 SE 7 11 1014.7 - 0.2 - - 10 - - - -
03/07:00am 23.7 SE 8 12 1014.3 - 0.2 - Partly cloudy 10 - - - -
03/06:30am 23.7 ESE 10 14 1014.1 - 0.2 - - 10 - - - -
03/06:00am 23.7 SE 9 13 1014.0 - 0.2 - - 10 - - - -
03/05:30am 23.7 SE 8 14 1013.9 - 0.2 - Partly cloudy 10 - - - -
03/05:00am 24.0 SE 11 15 1013.8 - 0.2 - - 10 - - - -
03/04:30am 24.0 SE 11 16 1013.8 - 0.2 - - 10 - - - -
03/04:00am 24.2 ESE 12 20 1013.9 - 0.2 - - 10 - - - -
03/03:30am 24.3 ESE 14 18 1014.0 - 0.2 - Partly cloudy 10 - - - -
03/03:00am 24.4 ESE 12 16 1014.3 - 0.2 - Cloudy 10 - - - -
03/02:30am 24.2 ESE 11 16 1014.5 - 0.2 - - 10 - - - -
03/02:00am 24.2 ESE 11 17 1014.7 - 0.2 - - 10 - - - -
03/01:30am 24.1 ESE 11 17 1015.0 - 0.2 - - 10 - - - -
03/01:00am 24.1 ESE 10 15 1015.3 - 0.2 - - 10 - - - -
03/12:30am 24.4 SE 11 17 1015.5 - 0.2 - - 10 - - - -
03/12:00am 24.5 SE 14 19 1015.7 - 0.2 - - 10 - - - -
 
Date/Time
EST
Temp

°C
Wind Pressure Rain
since 9am
mm
Weather Cloud Vis
km
Sea
Height
m
Swell
Dir
 
Speed
knots
Gust
knots
hPa Trend Height
m
Period
s
Dir
02/11:30pm 24.4 ESE 11 17 1015.8 - 0.2 - - 10 - - - -
02/11:00pm 24.7 ESE 13 17 1016.0 - 0.2 - - 10 - - - -
02/10:30pm 24.8 ESE 13 18 1016.2 - 0.2 - - 10 - - - -
02/10:00pm 24.9 ESE 13 18 1016.3 - 0.2 - Partly cloudy 10 - - - -
02/09:30pm 24.8 ESE 11 15 1016.4 - 0.2 - - 10 - - - -
02/09:00pm 24.8 ESE 13 19 1016.1 - 0.2 - - 10 - - - -
02/08:30pm 24.9 ESE 13 16 1015.8 - 0.2 - Partly cloudy 10 - - - -
02/08:00pm 25.0 ESE 14 19 1015.5 - 0.2 - Partly cloudy 10 - - - -
02/07:30pm 25.1 ESE 13 19 1015.0 - 0.2 - - 10 - - - -
02/07:00pm 25.1 ESE 13 19 1014.7 - 0.2 - Partly cloudy 10 - - - -
02/06:30pm 25.3 ESE 13 21 1014.4 - 0.2 - Partly cloudy 10 - - - -
02/06:00pm 25.7 ESE 16 22 1014.2 - 0.2 - Mostly clear 10 - - - -
02/05:30pm 25.9 ESE 14 22 1013.9 - 0.2 - Partly cloudy 10 - - - -
02/05:14pm 26.5 ESE 16 26 1013.8 - 0.2 - - 10 - - - -
02/05:00pm 26.7 ESE 17 22 1013.8 - 0.2 - - 10 - - - -
02/04:30pm 27.0 ESE 18 23 1013.6 - 0.2 - - 10 - - - -
02/04:00pm 27.2 ESE 18 25 1013.6 - 0.2 - - 10 - - - -
02/03:30pm 27.5 ESE 20 26 1013.5 - 0.2 - - 10 - - - -
02/03:00pm 27.4 ESE 19 27 1013.6 - 0.2 - - 10 - - - -
02/02:30pm 27.8 ESE 18 24 1014.0 - 0.2 - - 10 - - - -
02/02:00pm 27.5 ESE 18 23 1014.2 - 0.2 - - 10 - - - -
02/01:30pm 28.3 ESE 17 23 1014.5 - 0.2 - - 10 - - - -
02/01:00pm 28.3 ESE 17 25 1014.9 - 0.0 - Partly cloudy 10 - - - -
02/12:30pm 27.5 ESE 17 23 1015.4 - 0.0 - Partly cloudy 10 - - - -
02/12:00pm 27.2 ESE 18 24 1015.7 - 0.0 - Partly cloudy 10 - - - -
02/11:30am 27.5 ESE 18 25 1016.0 - 0.0 - Partly cloudy 10 - - - -
02/11:00am 27.6 ESE 18 25 1016.1 - 0.0 - Partly cloudy 10 - - - -
02/10:30am 27.2 ESE 17 26 1016.3 - 0.0 - - 10 - - - -
02/10:00am 26.4 SE 18 23 1016.6 - 0.0 - Partly cloudy 10 - - - -
02/09:30am 26.4 ESE 18 25 1016.8 - 0.0 - Partly cloudy 10 - - - -
02/09:00am 25.9 SE 13 18 1016.9 - 0.8 - Cloudy 10 - - - -
02/08:30am 25.3 SE 10 16 1016.7 - 0.8 - Partly cloudy 10 - - - -
02/08:00am 24.4 SE 10 15 1016.5 - 0.8 - Partly cloudy 10 - - - -
02/07:30am 24.1 SE 8 11 1016.1 - 0.8 - Partly cloudy 10 - - - -
02/07:00am 23.5 SSE 8 13 1015.7 - 0.8 - - 10 - - - -
02/06:30am 23.6 SE 9 14 1015.4 - 0.8 - Partly cloudy 10 - - - -
02/06:00am 23.4 SE 9 13 1015.4 - 0.8 - Mostly clear 10 - - - -
02/05:30am 23.4 SSE 9 14 1015.2 - 0.8 - Partly cloudy 10 - - - -
02/05:00am 23.3 SSE 10 15 1014.9 - 0.8 - Partly cloudy 10 - - - -
02/04:30am 23.4 SSE 10 16 1014.8 - 0.8 - Partly cloudy 10 - - - -
02/04:00am 23.4 SSE 10 15 1014.6 - 0.8 - Partly cloudy 10 - - - -
02/03:30am 23.6 SSE 10 13 1014.9 - 0.8 - Partly cloudy 10 - - - -
02/03:00am 23.5 SSE 10 13 1015.1 - 0.8 - - 10 - - - -
02/02:30am 23.6 SSE 11 16 1015.5 - 0.8 - Partly cloudy 9 - - - -
02/02:00am 23.6 SSE 8 13 1015.9 - 0.8 - Partly cloudy 10 - - - -
02/01:30am 23.6 SSE 9 14 1016.2 - 0.8 - Partly cloudy 10 - - - -
02/01:00am 23.7 SSE 9 15 1016.3 - 0.8 - Partly cloudy 9 - - - -
02/12:30am 23.7 SSE 9 12 1016.4 - 0.8 - Partly cloudy 10 - - - -
02/12:00am 23.7 SSE 9 11 1016.7 - 0.8 - Cloudy 10 - - - -
 
Date/Time
EST
Temp

°C
Wind Pressure Rain
since 9am
mm
Weather Cloud Vis
km
Sea
Height
m
Swell
Dir
 
Speed
knots
Gust
knots
hPa Trend Height
m
Period
s
Dir
01/11:30pm 23.6 SSE 8 13 1016.8 - 0.8 - Partly cloudy 10 - - - -
01/11:00pm 23.6 SE 7 10 1017.2 - 0.6 - Partly cloudy 7 - - - -
01/10:46pm 23.5 SE 8 11 1017.3 - 0.6 - Partly cloudy 10 - - - -
01/10:30pm 23.6 SSE 9 14 1017.4 - 0.6 - Partly cloudy 6 - - - -
01/10:23pm 23.8 SSE 7 9 1017.4 - 0.0 - Partly cloudy 8 - - - -
01/10:00pm 24.1 SE 8 13 1017.3 - 0.0 - Partly cloudy 10 - - - -
01/09:30pm 24.4 SE 7 9 1017.1 - 0.0 - Partly cloudy 10 - - - -
01/09:00pm 24.3 SE 8 10 1016.8 - 0.0 - Partly cloudy 10 - - - -
01/08:30pm 24.3 SE 7 9 1016.5 - 0.0 - Partly cloudy 10 - - - -
01/08:00pm 24.3 SE 9 13 1016.2 - 0.0 - Partly cloudy 10 - - - -
01/07:30pm 24.4 SE 9 14 1016.0 - 0.0 - Partly cloudy 9 - - - -
01/07:00pm 25.0 SE 11 15 1015.6 - 0.0 - Partly cloudy 10 - - - -
01/06:30pm 25.2 SE 12 17 1015.3 - 0.0 - Partly cloudy 10 - - - -
01/06:00pm 25.7 ESE 15 20 1014.9 - 0.0 - Mostly clear 10 - - - -
01/05:30pm 26.3 ESE 13 17 1014.5 - 0.0 - Partly cloudy 10 - - - -
01/05:00pm 26.6 ESE 16 20 1014.2 - 0.0 - Partly cloudy 10 - - - -
01/04:30pm 27.1 ESE 15 21 1014.0 - 0.0 - - 10 - - - -
01/04:00pm 27.6 ESE 14 19 1013.9 - 0.0 - Partly cloudy 10 - - - -
01/03:30pm 27.5 ESE 16 21 1014.0 - 0.0 - Partly cloudy 10 - - - -
01/03:00pm 27.7 ESE 16 21 1014.0 - 0.0 - Partly cloudy 10 - - - -
01/02:30pm 27.3 ESE 16 22 1014.3 - 0.0 - Partly cloudy 10 - - - -
01/02:00pm 28.3 ESE 17 24 1014.7 - 0.0 - Partly cloudy 10 - - - -
01/01:30pm 28.9 ESE 15 22 1015.0 - 0.0 - Partly cloudy 10 - - - -
01/01:00pm 28.6 E 16 23 1015.5 - 0.0 - Partly cloudy 10 - - - -
01/12:30pm 28.0 ESE 16 23 1015.8 - 0.0 - Partly cloudy 10 - - - -
01/12:00pm 27.8 ESE 15 21 1016.2 - 0.0 - Mostly cloudy 10 - - - -
01/11:30am 27.9 E 15 21 1016.5 - 0.0 - Partly cloudy 10 - - - -
01/11:00am 27.3 E 14 23 1016.6 - 0.0 - Partly cloudy 10 - - - -
01/10:30am 26.9 E 15 21 1016.9 - 0.0 - - 10 - - - -
01/10:00am 27.2 ESE 14 18 1016.9 - 0.0 - Partly cloudy 10 - - - -
01/09:30am 26.7 ESE 13 18 1016.9 - 0.0 - Partly cloudy 10 - - - -
01/09:00am 26.2 ESE 11 15 1016.8 - 0.0 - Mostly clear 10 - - - -
01/08:30am 26.2 ESE 10 14 1016.4 - 0.0 - Partly cloudy 10 - - - -
01/08:00am 25.1 SE 6 8 1015.9 - 0.0 - Partly cloudy 10 - - - -
01/07:30am 23.8 SE 5 6 1015.8 - 0.0 - Partly cloudy 10 - - - -
01/07:00am 23.8 SSE 7 9 1015.5 - 0.0 - Partly cloudy 10 - - - -
01/06:30am 23.8 ESE 7 10 1015.3 - 0.0 - Partly cloudy 10 - - - -
01/06:00am 23.9 SE 5 6 1015.2 - 0.0 - Cloudy 10 - - - -
01/05:30am 23.7 ESE 6 8 1015.1 - 0.0 - Partly cloudy 10 - - - -
01/05:00am 23.5 SE 6 8 1015.0 - 0.0 - Partly cloudy 10 - - - -
01/04:30am 23.6 ESE 9 11 1014.9 - 0.0 - - 10 - - - -
01/04:00am 23.5 SE 7 10 1014.8 - 0.0 - Partly cloudy 10 - - - -
01/03:30am 23.6 SE 7 10 1014.9 - 0.0 - Partly cloudy 10 - - - -
01/03:00am 23.3 SE 7 10 1014.8 - 0.0 - - 10 - - - -
01/02:30am 23.0 SE 5 7 1015.0 - 0.0 - - 10 - - - -
01/02:00am 23.2 SE 5 8 1015.3 - 0.0 - - 10 - - - -
01/01:30am 23.2 SE 7 9 1015.4 - 0.0 - - 10 - - - -
01/01:00am 22.5 SE 5 7 1015.5 - 0.0 - - 10 - - - -
01/12:30am 22.4 SE 5 6 1015.9 - 0.0 - - 10 - - - -
01/12:00am 22.5 SE 4 6 1016.1 - 0.0 - - 10 - - - -
 
Date/Time
EST
Temp

°C
Wind Pressure Rain
since 9am
mm
Weather Cloud Vis
km
Sea
Height
m
Swell
Dir
 
Speed
knots
Gust
knots
hPa Trend Height
m
Period
s
Dir
30/11:30pm 23.0 SE 5 6 1016.3 - 0.0 - - 10 - - - -
30/11:00pm 23.2 SSE 5 7 1016.7 - 0.0 - - 10 - - - -
30/10:30pm 23.2 SSE 4 5 1016.7 - 0.0 - - 10 - - - -
30/10:00pm 23.6 SSE 5 7 1016.7 - 0.0 - - 10 - - - -
30/09:30pm 23.8 SSE 6 8 1016.6 - 0.0 - - 10 - - - -
30/09:00pm 23.9 SSE 7 9 1016.5 - 0.0 - - 10 - - - -
30/08:30pm 24.0 SE 7 9 1016.1 - 0.0 - - 10 - - - -
30/08:00pm 24.3 SE 9 13 1015.5 - 0.0 - - 10 - - - -
30/07:30pm 24.4 SE 8 11 1015.1 - 0.0 - - 10 - - - -
30/07:00pm 24.4 ESE 7 9 1014.8 - 0.0 - - 10 - - - -
30/06:30pm 24.7 ESE 9 13 1014.4 - 0.0 - - 10 - - - -
30/06:00pm 25.2 E 9 12 1014.1 - 0.0 - - 10 - - - -
30/05:30pm 25.7 E 10 15 1013.6 - 0.0 - - 10 - - - -
30/05:00pm 26.3 E 11 15 1013.3 - 0.0 - - 10 - - - -
30/04:30pm 26.8 E 11 14 1013.1 - 0.0 - - 10 - - - -
30/04:00pm 26.9 E 11 15 1013.1 - 0.0 - - 10 - - - -
30/03:30pm 27.6 E 12 16 1013.1 - 0.0 - - 10 - - - -
30/03:00pm 27.3 E 12 16 1013.3 - 0.0 - - 10 - - - -
30/02:30pm 27.6 E 13 16 1013.5 - 0.0 - - 10 - - - -
30/02:00pm 27.7 E 12 15 1013.8 - 0.0 - - 10 - - - -
30/01:30pm 27.2 E 12 16 1014.2 - 0.0 - - 10 - - - -
30/01:00pm 27.0 E 12 17 1014.5 - 0.0 - - 10 - - - -

Other Formats:

Comma delimited format used in spreadsheet applications
http://www.bom.gov.au/fwo/IDQ60701/IDQ60701.94174.axf

JavaScript Object Notation format (JSON) in row-major order
http://www.bom.gov.au/fwo/IDQ60701/IDQ60701.94174.json